Time;durP1;ratioP1;P1;durP2;ratioP2;P2;SDS_P1;SDS_P2;PMS_P1;PMS_P2;Temp;Humidity;BMP_temperature;BMP_pressure;BME280_temperature;BME280_humidity;BME280_pressure;Samples;Min_cycle;Max_cycle;Signal;HPM_P1;HPM_P2
2024/01/03 00:00:54;;;;;;;92.97;49.70;;;;;;;;;;4988590;28;20042;-72
2024/01/03 00:03:22;;;;;;;86.35;45.72;;;;;;;;;;4989068;28;20117;-72
2024/01/03 00:05:47;;;;;;;93.95;50.28;;;;;;;;;;4987004;28;20070;-72
2024/01/03 00:08:26;;;;;;;87.13;47.03;;;;;;;;;;4989941;28;20960;-72
2024/01/03 00:10:55;;;;;;;96.20;48.78;;;;;;;;;;4990249;28;20536;-72
2024/01/03 00:13:32;;;;;;;94.57;48.33;;;;;;;;;;4990392;28;20068;-73
2024/01/03 00:16:01;;;;;;;92.47;45.88;;;;;;;;;;4989963;28;20042;-72
2024/01/03 00:18:58;;;;;;;97.43;47.65;;;;;;;;;;5005324;28;20113;-72
2024/01/03 00:21:26;;;;;;;115.10;53.60;;;;;;;;;;4993310;28;20564;-72
2024/01/03 00:23:58;;;;;;;113.40;55.05;;;;;;;;;;4989945;28;20074;-72
2024/01/03 00:26:25;;;;;;;97.57;50.47;;;;;;;;;;4990165;28;20364;-72
2024/01/03 00:28:51;;;;;;;97.75;47.63;;;;;;;;;;4988841;28;20038;-73
2024/01/03 00:31:44;;;;;;;80.57;42.80;;;;;;;;;;4972757;28;20052;-73
2024/01/03 00:34:22;;;;;;;88.00;46.58;;;;;;;;;;4988117;28;20038;-73
2024/01/03 00:36:49;;;;;;;79.15;41.95;;;;;;;;;;4988495;28;20141;-73
2024/01/03 00:39:15;;;;;;;70.72;39.90;;;;;;;;;;4990403;28;20077;-73
2024/01/03 00:41:41;;;;;;;70.97;37.13;;;;;;;;;;5004752;28;20042;-71
2024/01/03 00:44:06;;;;;;;77.43;38.92;;;;;;;;;;5001215;28;20042;-73
2024/01/03 00:46:32;;;;;;;77.57;41.35;;;;;;;;;;4989238;28;20026;-72
2024/01/03 00:48:59;;;;;;;59.92;35.55;;;;;;;;;;4989051;28;20038;-72
2024/01/03 00:51:24;;;;;;;50.45;28.92;;;;;;;;;;4998784;28;20050;-72
2024/01/03 00:53:50;;;;;;;49.03;28.10;;;;;;;;;;4988039;28;20562;-72
2024/01/03 00:56:16;;;;;;;44.42;25.40;;;;;;;;;;5004160;28;20120;-72
2024/01/03 00:58:41;;;;;;;54.67;28.98;;;;;;;;;;4971582;28;20404;-72
2024/01/03 01:01:08;;;;;;;61.75;34.72;;;;;;;;;;4987700;28;20034;-72
2024/01/03 01:03:33;;;;;;;49.95;27.30;;;;;;;;;;4989246;28;20035;-73
2024/01/03 01:05:59;;;;;;;50.90;28.90;;;;;;;;;;4986460;28;20496;-72
2024/01/03 01:08:25;;;;;;;56.63;29.02;;;;;;;;;;4992899;28;20026;-72
2024/01/03 01:10:50;;;;;;;43.63;24.50;;;;;;;;;;4993226;28;20472;-72
2024/01/03 01:13:16;;;;;;;38.03;21.23;;;;;;;;;;4993599;28;20042;-73
2024/01/03 01:15:42;;;;;;;38.13;21.58;;;;;;;;;;4994582;28;20500;-73
2024/01/03 01:18:07;;;;;;;32.28;19.23;;;;;;;;;;4993212;28;20026;-72
2024/01/03 01:20:33;;;;;;;36.83;19.63;;;;;;;;;;4992993;28;20050;-72
2024/01/03 01:22:58;;;;;;;36.00;19.42;;;;;;;;;;4994675;28;20046;-72
2024/01/03 01:25:24;;;;;;;34.97;20.02;;;;;;;;;;4993221;28;20495;-72
2024/01/03 01:27:50;;;;;;;34.08;18.70;;;;;;;;;;4993175;28;20034;-72
2024/01/03 01:30:16;;;;;;;31.05;18.90;;;;;;;;;;4994125;28;20109;-72
2024/01/03 01:32:41;;;;;;;33.22;20.08;;;;;;;;;;4994288;28;20506;-73
2024/01/03 01:35:07;;;;;;;29.27;17.33;;;;;;;;;;4992801;28;20030;-73
2024/01/03 01:37:33;;;;;;;45.28;19.92;;;;;;;;;;4994311;28;20045;-72
2024/01/03 01:39:58;;;;;;;34.70;19.90;;;;;;;;;;4976608;28;20038;-73
2024/01/03 01:42:25;;;;;;;35.58;20.10;;;;;;;;;;4993066;28;20030;-73
2024/01/03 01:44:50;;;;;;;35.40;19.40;;;;;;;;;;4992436;28;20045;-73
2024/01/03 01:47:16;;;;;;;45.08;24.73;;;;;;;;;;4976514;28;20026;-72
2024/01/03 01:49:42;;;;;;;46.00;24.65;;;;;;;;;;4976478;28;20037;-72
2024/01/03 01:52:10;;;;;;;47.38;24.85;;;;;;;;;;4993974;28;20038;-72
2024/01/03 01:54:37;;;;;;;54.58;30.17;;;;;;;;;;4993675;28;20114;-72
2024/01/03 01:57:03;;;;;;;52.65;29.83;;;;;;;;;;4992607;28;20084;-72
2024/01/03 01:59:29;;;;;;;61.75;33.60;;;;;;;;;;4992572;28;20034;-72
2024/01/03 02:01:56;;;;;;;69.75;40.03;;;;;;;;;;4992510;28;20034;-72
2024/01/03 02:04:22;;;;;;;62.65;38.00;;;;;;;;;;4992168;28;20034;-72
2024/01/03 02:06:49;;;;;;;74.95;38.25;;;;;;;;;;4992381;28;20038;-72
2024/01/03 02:09:15;;;;;;;77.40;40.85;;;;;;;;;;4976200;28;20034;-73
2024/01/03 02:11:45;;;;;;;78.38;41.20;;;;;;;;;;4992259;28;20057;-72
2024/01/03 02:14:10;;;;;;;72.68;41.80;;;;;;;;;;4976025;28;20117;-73
2024/01/03 02:16:36;;;;;;;73.20;38.22;;;;;;;;;;4992038;28;20129;-72
2024/01/03 02:19:04;;;;;;;77.10;38.22;;;;;;;;;;4992183;28;20026;-72
2024/01/03 02:21:30;;;;;;;73.25;39.20;;;;;;;;;;4993328;28;20500;-72
2024/01/03 02:23:56;;;;;;;66.53;36.03;;;;;;;;;;4993433;28;20445;-72
2024/01/03 02:26:22;;;;;;;69.38;37.83;;;;;;;;;;4992019;28;20088;-72
2024/01/03 02:28:47;;;;;;;66.43;38.05;;;;;;;;;;4993566;28;20070;-72
2024/01/03 02:31:13;;;;;;;59.03;32.50;;;;;;;;;;4993431;28;20125;-72
2024/01/03 02:33:39;;;;;;;44.53;25.65;;;;;;;;;;4990901;28;20395;-72
2024/01/03 02:36:05;;;;;;;47.17;23.98;;;;;;;;;;4993074;28;20041;-72
2024/01/03 02:38:31;;;;;;;43.78;23.40;;;;;;;;;;4992958;28;20018;-73
2024/01/03 02:40:56;;;;;;;40.15;24.00;;;;;;;;;;4993867;28;20301;-71
2024/01/03 02:43:22;;;;;;;45.90;26.15;;;;;;;;;;4993875;28;20043;-72
2024/01/03 02:45:48;;;;;;;46.25;26.70;;;;;;;;;;4993195;28;20042;-71
2024/01/03 02:48:13;;;;;;;35.75;21.50;;;;;;;;;;4993068;28;20380;-72
2024/01/03 02:50:43;;;;;;;33.15;19.05;;;;;;;;;;4992957;28;20030;-72
2024/01/03 02:53:10;;;;;;;34.97;19.17;;;;;;;;;;4992823;28;20305;-72
2024/01/03 02:55:35;;;;;;;33.25;18.60;;;;;;;;;;4991634;28;20046;-72
2024/01/03 02:58:01;;;;;;;34.13;18.73;;;;;;;;;;4992721;28;20378;-72
2024/01/03 03:00:26;;;;;;;33.83;18.25;;;;;;;;;;4992708;28;20133;-72
2024/01/03 03:02:52;;;;;;;33.30;18.52;;;;;;;;;;4992879;28;20512;-72
2024/01/03 03:05:18;;;;;;;32.75;17.27;;;;;;;;;;4992533;28;20046;-72
2024/01/03 03:07:43;;;;;;;31.92;18.65;;;;;;;;;;4992613;28;20117;-72
2024/01/03 03:10:14;;;;;;;37.65;18.02;;;;;;;;;;4992708;28;20041;-72
2024/01/03 03:12:40;;;;;;;32.88;17.98;;;;;;;;;;4985042;28;20485;-72
2024/01/03 03:15:06;;;;;;;32.85;17.83;;;;;;;;;;4992809;28;20030;-72
2024/01/03 03:17:32;;;;;;;32.05;17.48;;;;;;;;;;4993047;28;20512;-72
2024/01/03 03:19:58;;;;;;;27.85;15.80;;;;;;;;;;4992753;28;20043;-72
2024/01/03 03:22:23;;;;;;;28.17;15.30;;;;;;;;;;4991781;28;20481;-72
2024/01/03 03:24:49;;;;;;;27.58;16.05;;;;;;;;;;4992602;28;20066;-72
2024/01/03 03:27:15;;;;;;;31.08;15.63;;;;;;;;;;4994084;28;20109;-72
2024/01/03 03:29:40;;;;;;;30.88;15.85;;;;;;;;;;4996630;28;20428;-72
2024/01/03 03:32:07;;;;;;;31.48;15.98;;;;;;;;;;4996853;28;20053;-72
2024/01/03 03:34:33;;;;;;;34.00;17.00;;;;;;;;;;4996351;28;20480;-73
2024/01/03 03:37:00;;;;;;;39.30;16.73;;;;;;;;;;4996370;28;20034;-72
2024/01/03 03:39:26;;;;;;;28.60;15.98;;;;;;;;;;4996303;28;20129;-72
2024/01/03 03:41:52;;;;;;;30.42;15.63;;;;;;;;;;4996588;28;20114;-72
2024/01/03 03:44:17;;;;;;;42.42;17.17;;;;;;;;;;4996169;28;20396;-72
2024/01/03 03:46:43;;;;;;;31.27;16.40;;;;;;;;;;4996273;28;20381;-72
2024/01/03 03:49:09;;;;;;;29.25;16.13;;;;;;;;;;4995944;28;20514;-72
2024/01/03 03:51:34;;;;;;;33.33;15.30;;;;;;;;;;4991998;28;20040;-73
2024/01/03 03:54:00;;;;;;;27.58;15.80;;;;;;;;;;4995144;28;20034;-72
2024/01/03 03:56:28;;;;;;;30.02;17.05;;;;;;;;;;4995609;28;20038;-72
2024/01/03 03:58:55;;;;;;;35.05;19.10;;;;;;;;;;4994400;28;20034;-72
2024/01/03 04:01:21;;;;;;;28.00;16.05;;;;;;;;;;4995234;28;20116;-72
2024/01/03 04:03:46;;;;;;;31.35;18.30;;;;;;;;;;4995146;28;20074;-72
2024/01/03 04:06:13;;;;;;;37.78;19.73;;;;;;;;;;4993781;28;20058;-72
2024/01/03 04:08:43;;;;;;;40.38;21.52;;;;;;;;;;4995379;28;20120;-72
2024/01/03 04:11:10;;;;;;;36.25;19.88;;;;;;;;;;4995028;28;20038;-72
2024/01/03 04:13:38;;;;;;;37.53;20.25;;;;;;;;;;4994676;28;20455;-73
2024/01/03 04:16:10;;;;;;;31.00;16.90;;;;;;;;;;4995263;28;20093;-73
2024/01/03 04:18:36;;;;;;;31.07;15.83;;;;;;;;;;4995934;28;20044;-73
2024/01/03 04:21:05;;;;;;;32.10;17.73;;;;;;;;;;4995324;28;20467;-72
2024/01/03 04:23:31;;;;;;;32.78;16.25;;;;;;;;;;4994358;28;20038;-72
2024/01/03 04:25:59;;;;;;;30.23;16.00;;;;;;;;;;4994204;28;20038;-72
2024/01/03 04:28:25;;;;;;;36.55;16.67;;;;;;;;;;4993239;28;20030;-73
2024/01/03 04:30:51;;;;;;;42.08;20.48;;;;;;;;;;4992771;28;20101;-72
2024/01/03 04:33:16;;;;;;;35.97;19.73;;;;;;;;;;4993882;28;20440;-72
2024/01/03 04:35:42;;;;;;;32.80;17.00;;;;;;;;;;4994066;28;20026;-72
2024/01/03 04:38:08;;;;;;;33.55;16.80;;;;;;;;;;4992565;28;20437;-72
2024/01/03 04:40:33;;;;;;;32.72;16.02;;;;;;;;;;4993867;28;20092;-73
2024/01/03 04:43:00;;;;;;;28.02;15.20;;;;;;;;;;4994195;28;20023;-71
2024/01/03 04:45:25;;;;;;;27.70;15.43;;;;;;;;;;4987823;28;20555;-71
2024/01/03 04:47:51;;;;;;;23.00;12.38;;;;;;;;;;4993633;28;20057;-71
2024/01/03 04:50:17;;;;;;;17.52;10.00;;;;;;;;;;4992307;28;20101;-71
2024/01/03 04:52:43;;;;;;;24.73;11.88;;;;;;;;;;4993398;28;20038;-72
2024/01/03 04:55:09;;;;;;;21.35;10.65;;;;;;;;;;4993614;28;20030;-72
2024/01/03 04:57:35;;;;;;;19.05;10.20;;;;;;;;;;5008303;28;20038;-73
2024/01/03 05:00:02;;;;;;;23.23;10.55;;;;;;;;;;4987772;28;20034;-73
2024/01/03 05:02:27;;;;;;;21.60;10.52;;;;;;;;;;4993231;28;20042;-72
2024/01/03 05:04:53;;;;;;;19.35;10.93;;;;;;;;;;4993211;28;20022;-72
2024/01/03 05:07:19;;;;;;;18.77;10.48;;;;;;;;;;4993491;28;20113;-72
2024/01/03 05:09:44;;;;;;;21.63;10.68;;;;;;;;;;4992942;28;20129;-73
2024/01/03 05:12:10;;;;;;;25.77;10.07;;;;;;;;;;4992996;28;20034;-73
2024/01/03 05:14:36;;;;;;;18.02;9.90;;;;;;;;;;4992953;28;20481;-72
2024/01/03 05:17:02;;;;;;;21.95;10.82;;;;;;;;;;4991924;28;20041;-72
2024/01/03 05:19:28;;;;;;;22.30;10.68;;;;;;;;;;4991846;28;20109;-73
2024/01/03 05:21:53;;;;;;;22.48;11.35;;;;;;;;;;4941873;28;1504639;-72
2024/01/03 05:24:20;;;;;;;26.70;11.05;;;;;;;;;;4993835;28;20045;-72
2024/01/03 05:26:46;;;;;;;31.05;13.30;;;;;;;;;;4993611;28;20398;-73
2024/01/03 05:29:12;;;;;;;28.40;12.60;;;;;;;;;;4989136;28;20241;-73
2024/01/03 05:31:38;;;;;;;31.70;12.88;;;;;;;;;;4992522;28;20066;-73
2024/01/03 05:34:04;;;;;;;31.10;11.73;;;;;;;;;;4993453;28;20053;-73
2024/01/03 05:36:30;;;;;;;26.05;10.95;;;;;;;;;;4993786;28;20413;-72
2024/01/03 05:38:56;;;;;;;22.00;11.90;;;;;;;;;;4993959;28;20125;-72
2024/01/03 05:41:21;;;;;;;24.15;11.68;;;;;;;;;;4993747;28;20481;-73
2024/01/03 05:43:47;;;;;;;31.23;11.65;;;;;;;;;;4993632;28;20034;-73
2024/01/03 05:46:13;;;;;;;21.55;10.30;;;;;;;;;;4993536;28;20045;-73
2024/01/03 05:48:38;;;;;;;23.73;12.80;;;;;;;;;;4993085;28;20036;-73
2024/01/03 05:51:06;;;;;;;29.35;16.38;;;;;;;;;;4992342;28;20030;-73
2024/01/03 05:53:31;;;;;;;30.38;15.90;;;;;;;;;;4992810;28;20118;-73
2024/01/03 05:55:57;;;;;;;24.77;15.15;;;;;;;;;;4992979;28;20034;-74
2024/01/03 05:58:23;;;;;;;26.35;14.85;;;;;;;;;;4992795;28;20141;-73
2024/01/03 06:00:49;;;;;;;28.95;15.13;;;;;;;;;;4992841;28;20077;-73
2024/01/03 06:03:15;;;;;;;34.20;14.95;;;;;;;;;;4992954;28;20052;-73
2024/01/03 06:05:40;;;;;;;33.13;15.18;;;;;;;;;;4992690;28;20034;-73
2024/01/03 06:08:06;;;;;;;36.60;18.25;;;;;;;;;;4991702;28;20034;-74
2024/01/03 06:10:32;;;;;;;39.63;20.02;;;;;;;;;;5007905;28;20504;-74
2024/01/03 06:12:59;;;;;;;33.75;17.88;;;;;;;;;;4992509;28;20084;-74
2024/01/03 06:15:25;;;;;;;38.17;17.42;;;;;;;;;;4992772;28;20030;-74
2024/01/03 06:17:51;;;;;;;23.50;14.60;;;;;;;;;;4991543;28;20361;-74
2024/01/03 06:20:16;;;;;;;22.58;12.25;;;;;;;;;;5007864;28;20117;-74
2024/01/03 06:22:42;;;;;;;26.20;13.70;;;;;;;;;;4991227;28;20117;-74
2024/01/03 06:25:08;;;;;;;28.20;13.00;;;;;;;;;;4992368;28;20023;-73
2024/01/03 06:27:33;;;;;;;27.88;14.27;;;;;;;;;;5006995;28;20511;-73
2024/01/03 06:29:59;;;;;;;30.85;14.10;;;;;;;;;;4992694;28;20023;-74
2024/01/03 06:32:24;;;;;;;28.05;14.05;;;;;;;;;;4993125;28;20034;-74
2024/01/03 06:34:50;;;;;;;38.72;17.17;;;;;;;;;;4991011;28;20607;-73
2024/01/03 06:37:17;;;;;;;26.30;15.57;;;;;;;;;;4992394;28;20034;-74
2024/01/03 06:39:43;;;;;;;27.20;15.20;;;;;;;;;;4990890;28;20488;-74
2024/01/03 06:42:08;;;;;;;31.70;14.85;;;;;;;;;;4992750;28;20053;-74
2024/01/03 06:44:34;;;;;;;27.50;14.07;;;;;;;;;;4992503;28;20038;-74
2024/01/03 06:47:00;;;;;;;29.25;13.98;;;;;;;;;;4992743;28;20109;-74
2024/01/03 06:49:26;;;;;;;28.20;13.65;;;;;;;;;;4992490;28;20069;-74
2024/01/03 06:51:51;;;;;;;41.28;18.17;;;;;;;;;;4992373;28;20038;-73
2024/01/03 06:54:17;;;;;;;42.53;15.25;;;;;;;;;;4992251;28;20026;-73
2024/01/03 06:56:43;;;;;;;36.88;15.57;;;;;;;;;;4992498;28;20045;-74
2024/01/03 06:59:08;;;;;;;29.30;13.63;;;;;;;;;;4992394;28;20046;-74
2024/01/03 07:01:34;;;;;;;28.17;13.20;;;;;;;;;;4992637;28;20026;-74
2024/01/03 07:04:01;;;;;;;23.17;11.20;;;;;;;;;;4992563;28;20455;-74
2024/01/03 07:06:27;;;;;;;25.35;10.15;;;;;;;;;;4990951;28;20456;-73
2024/01/03 07:08:53;;;;;;;18.70;9.32;;;;;;;;;;4992098;28;20028;-73
2024/01/03 07:11:20;;;;;;;24.40;9.50;;;;;;;;;;4992096;28;20104;-73
2024/01/03 07:13:46;;;;;;;13.65;7.35;;;;;;;;;;4991167;28;20042;-74
2024/01/03 07:16:11;;;;;;;13.02;6.63;;;;;;;;;;4992259;28;20092;-74
2024/01/03 07:18:37;;;;;;;23.55;10.25;;;;;;;;;;4992337;28;20037;-73
2024/01/03 07:21:04;;;;;;;27.10;10.48;;;;;;;;;;4991739;28;20206;-73
2024/01/03 07:23:29;;;;;;;40.28;15.23;;;;;;;;;;4992049;28;20098;-74
2024/01/03 07:25:55;;;;;;;25.48;13.25;;;;;;;;;;4990426;28;20104;-74
2024/01/03 07:28:21;;;;;;;32.28;16.70;;;;;;;;;;4991799;28;20455;-74
2024/01/03 07:30:46;;;;;;;28.92;15.18;;;;;;;;;;4991879;28;20025;-73
2024/01/03 07:33:13;;;;;;;33.00;15.57;;;;;;;;;;4990058;28;20404;-74
2024/01/03 07:35:38;;;;;;;28.73;15.50;;;;;;;;;;4992191;28;20042;-74
2024/01/03 07:38:05;;;;;;;27.33;14.57;;;;;;;;;;5010196;28;20610;-74
2024/01/03 07:40:31;;;;;;;31.70;14.15;;;;;;;;;;5010458;28;20046;-75
2024/01/03 07:42:57;;;;;;;28.75;15.23;;;;;;;;;;4981674;28;20035;-74
2024/01/03 07:45:22;;;;;;;32.00;15.93;;;;;;;;;;4999073;28;20476;-74
2024/01/03 07:47:48;;;;;;;31.45;16.15;;;;;;;;;;5001351;28;20038;-74
2024/01/03 07:50:14;;;;;;;36.45;18.90;;;;;;;;;;5011161;28;20463;-75
2024/01/03 07:52:41;;;;;;;30.65;16.90;;;;;;;;;;5001857;28;20118;-74
2024/01/03 07:55:07;;;;;;;27.23;16.17;;;;;;;;;;4989375;28;20024;-74
2024/01/03 07:57:33;;;;;;;29.92;16.60;;;;;;;;;;5007527;28;20121;-74
2024/01/03 07:59:59;;;;;;;32.33;16.35;;;;;;;;;;5010606;28;20414;-74
2024/01/03 08:02:25;;;;;;;32.42;15.05;;;;;;;;;;5009297;28;20030;-74
2024/01/03 08:04:51;;;;;;;22.67;13.68;;;;;;;;;;5002110;28;20410;-75
2024/01/03 08:07:18;;;;;;;21.30;12.10;;;;;;;;;;4996645;28;20113;-74
2024/01/03 08:09:43;;;;;;;16.95;9.80;;;;;;;;;;5000098;28;20069;-75
2024/01/03 08:12:09;;;;;;;19.73;9.40;;;;;;;;;;5002589;28;20030;-74
2024/01/03 08:14:37;;;;;;;13.93;6.57;;;;;;;;;;5005097;28;20039;-74
2024/01/03 08:17:03;;;;;;;19.85;8.65;;;;;;;;;;5002101;28;20157;-74
2024/01/03 08:19:29;;;;;;;17.60;8.82;;;;;;;;;;4994554;28;20132;-74
2024/01/03 08:21:55;;;;;;;15.65;8.18;;;;;;;;;;5003222;28;20053;-74
2024/01/03 08:24:21;;;;;;;15.63;7.38;;;;;;;;;;5013535;28;20014;-73
2024/01/03 08:26:47;;;;;;;14.27;8.57;;;;;;;;;;5003157;28;20065;-74
2024/01/03 08:29:16;;;;;;;37.20;13.38;;;;;;;;;;4994017;28;20045;-74
2024/01/03 08:31:42;;;;;;;37.72;14.38;;;;;;;;;;5000992;28;20037;-75
2024/01/03 08:34:08;;;;;;;37.10;15.55;;;;;;;;;;5000694;28;20038;-74
2024/01/03 08:36:41;;;;;;;27.08;14.63;;;;;;;;;;5009320;28;20034;-75
2024/01/03 08:39:07;;;;;;;39.35;16.42;;;;;;;;;;4994497;28;20050;-74
2024/01/03 08:41:33;;;;;;;31.27;15.02;;;;;;;;;;5009421;28;20546;-75
2024/01/03 08:43:59;;;;;;;33.13;16.83;;;;;;;;;;5002772;28;20048;-73
2024/01/03 08:46:30;;;;;;;30.50;17.20;;;;;;;;;;5002802;28;20042;-73
2024/01/03 08:48:57;;;;;;;40.10;18.30;;;;;;;;;;5004205;28;20034;-75
2024/01/03 08:51:23;;;;;;;35.40;16.20;;;;;;;;;;5006888;28;20026;-73
2024/01/03 08:53:50;;;;;;;35.53;17.15;;;;;;;;;;5010043;28;20080;-74
2024/01/03 08:56:17;;;;;;;28.52;17.42;;;;;;;;;;5001911;28;20065;-74
2024/01/03 08:58:44;;;;;;;29.65;16.80;;;;;;;;;;5009880;28;20022;-74
2024/01/03 09:01:18;;;;;;;40.58;18.48;;;;;;;;;;4995675;28;20096;-74
2024/01/03 09:03:45;;;;;;;33.38;18.48;;;;;;;;;;5004996;28;20399;-73
2024/01/03 09:06:22;;;;;;;31.77;18.67;;;;;;;;;;4996893;28;20567;-73
2024/01/03 09:08:51;;;;;;;37.03;17.30;;;;;;;;;;5005145;28;20409;-73
2024/01/03 09:11:19;;;;;;;35.60;17.35;;;;;;;;;;5009062;28;20140;-74
2024/01/03 09:13:49;;;;;;;32.42;18.50;;;;;;;;;;5002253;28;20030;-73
2024/01/03 09:16:17;;;;;;;30.85;15.73;;;;;;;;;;4997131;28;20116;-73
2024/01/03 09:18:42;;;;;;;27.30;15.55;;;;;;;;;;4997376;28;20472;-73
2024/01/03 09:21:08;;;;;;;26.10;15.20;;;;;;;;;;4995502;28;20058;-74
2024/01/03 09:23:34;;;;;;;37.15;16.85;;;;;;;;;;4998188;28;20168;-73
2024/01/03 09:26:03;;;;;;;38.10;17.00;;;;;;;;;;5008551;28;20076;-73
2024/01/03 09:28:29;;;;;;;30.08;17.83;;;;;;;;;;4993292;28;20034;-74
2024/01/03 09:30:55;;;;;;;32.90;18.30;;;;;;;;;;5001377;28;20022;-74
2024/01/03 09:33:20;;;;;;;23.35;13.75;;;;;;;;;;5005311;28;20373;-74
2024/01/03 09:35:46;;;;;;;29.48;17.20;;;;;;;;;;5004523;28;20041;-74
2024/01/03 09:38:13;;;;;;;30.55;16.85;;;;;;;;;;4993366;28;20030;-74
2024/01/03 09:40:41;;;;;;;28.45;17.13;;;;;;;;;;5007123;28;20061;-73
2024/01/03 09:43:07;;;;;;;33.53;18.73;;;;;;;;;;5002646;28;20042;-73
2024/01/03 09:45:33;;;;;;;39.00;20.13;;;;;;;;;;4992755;28;20547;-73
2024/01/03 09:47:58;;;;;;;26.38;15.30;;;;;;;;;;4999764;28;20554;-73
2024/01/03 09:50:24;;;;;;;26.38;15.60;;;;;;;;;;5001328;28;20027;-74
2024/01/03 09:52:52;;;;;;;29.83;17.17;;;;;;;;;;4991851;28;20061;-74
2024/01/03 09:55:18;;;;;;;30.27;16.35;;;;;;;;;;5003926;28;20040;-73
2024/01/03 09:57:44;;;;;;;34.92;18.60;;;;;;;;;;5004126;28;20455;-73
2024/01/03 10:00:11;;;;;;;22.52;13.10;;;;;;;;;;5003395;28;20030;-73
2024/01/03 10:02:37;;;;;;;22.67;11.05;;;;;;;;;;5005836;28;20066;-73
2024/01/03 10:05:06;;;;;;;26.08;16.02;;;;;;;;;;5009120;28;20064;-74
2024/01/03 10:07:35;;;;;;;42.00;19.38;;;;;;;;;;5003902;28;20057;-73
2024/01/03 10:10:02;;;;;;;43.45;18.33;;;;;;;;;;5003604;28;20037;-73
2024/01/03 10:12:34;;;;;;;36.65;19.30;;;;;;;;;;5003768;28;20429;-72
2024/01/03 10:15:17;;;;;;;33.47;17.67;;;;;;;;;;4995610;28;20092;-72
2024/01/03 10:17:44;;;;;;;34.40;18.15;;;;;;;;;;4996876;28;20037;-73
2024/01/03 10:20:27;;;;;;;29.13;16.98;;;;;;;;;;5010674;28;20042;-73
2024/01/03 10:23:10;;;;;;;28.73;16.88;;;;;;;;;;4998298;28;20050;-72
2024/01/03 10:25:37;;;;;;;30.13;16.58;;;;;;;;;;4985305;28;20113;-73
2024/01/03 10:28:06;;;;;;;39.00;17.27;;;;;;;;;;5000220;28;20349;-73
2024/01/03 10:30:33;;;;;;;34.72;17.13;;;;;;;;;;4985125;28;20121;-72
2024/01/03 10:33:09;;;;;;;31.42;17.02;;;;;;;;;;4999692;28;20061;-72
2024/01/03 10:35:44;;;;;;;29.40;14.93;;;;;;;;;;4986905;28;20037;-74
2024/01/03 10:38:10;;;;;;;20.15;10.18;;;;;;;;;;5003459;28;20436;-74
2024/01/03 10:40:39;;;;;;;20.35;8.90;;;;;;;;;;5007078;28;20133;-73
2024/01/03 10:43:07;;;;;;;23.27;12.55;;;;;;;;;;5000392;28;20473;-73
2024/01/03 10:45:33;;;;;;;30.88;14.30;;;;;;;;;;4983854;28;20086;-73
2024/01/03 10:48:00;;;;;;;36.45;15.35;;;;;;;;;;5000905;28;20037;-73
2024/01/03 10:50:28;;;;;;;27.10;13.73;;;;;;;;;;5000908;28;20022;-73
2024/01/03 10:52:56;;;;;;;36.50;15.40;;;;;;;;;;5000128;28;20030;-73
2024/01/03 10:55:26;;;;;;;34.50;14.50;;;;;;;;;;5001103;28;20473;-73
2024/01/03 10:58:12;;;;;;;34.10;13.88;;;;;;;;;;5003577;28;20370;-73
2024/01/03 11:01:11;;;;;;;30.42;16.25;;;;;;;;;;4983620;28;20092;-72
2024/01/03 11:04:20;;;;;;;41.78;21.30;;;;;;;;;;4999718;28;20049;-73
2024/01/03 11:06:58;;;;;;;36.22;17.95;;;;;;;;;;4998991;28;20086;-72
2024/01/03 11:09:27;;;;;;;35.20;16.73;;;;;;;;;;4990471;28;20404;-72
2024/01/03 11:12:10;;;;;;;43.95;18.00;;;;;;;;;;4990101;28;20030;-73
2024/01/03 11:14:37;;;;;;;34.28;16.60;;;;;;;;;;4991027;28;20070;-73
2024/01/03 11:17:03;;;;;;;30.42;16.55;;;;;;;;;;4991547;28;20424;-73
2024/01/03 11:19:31;;;;;;;40.42;19.17;;;;;;;;;;4991027;28;20448;-73
2024/01/03 11:22:03;;;;;;;41.83;18.13;;;;;;;;;;4990960;28;20084;-73
2024/01/03 11:24:31;;;;;;;38.10;19.42;;;;;;;;;;4990882;28;20057;-72
2024/01/03 11:27:04;;;;;;;42.03;18.35;;;;;;;;;;4991651;28;20054;-72
2024/01/03 11:29:41;;;;;;;38.22;18.85;;;;;;;;;;4990654;28;20455;-74
2024/01/03 11:32:09;;;;;;;37.00;20.15;;;;;;;;;;4990516;28;20109;-73
2024/01/03 11:34:41;;;;;;;36.17;19.65;;;;;;;;;;4991022;28;20070;-72
2024/01/03 11:37:26;;;;;;;33.85;18.67;;;;;;;;;;4991488;28;20042;-72
2024/01/03 11:39:54;;;;;;;43.92;20.92;;;;;;;;;;4990183;28;20077;-72
2024/01/03 11:42:28;;;;;;;42.35;19.95;;;;;;;;;;4990918;28;20026;-73
2024/01/03 11:45:09;;;;;;;34.33;18.42;;;;;;;;;;4973431;28;20038;-73
2024/01/03 11:47:37;;;;;;;31.67;17.95;;;;;;;;;;4989519;28;20034;-72
2024/01/03 11:50:04;;;;;;;31.13;18.13;;;;;;;;;;4999638;28;20030;-73
2024/01/03 11:52:33;;;;;;;37.83;19.85;;;;;;;;;;4995613;28;20061;-74
2024/01/03 11:55:12;;;;;;;36.15;19.92;;;;;;;;;;4994883;28;20046;-73
2024/01/03 11:57:41;;;;;;;58.22;22.88;;;;;;;;;;4995615;28;20088;-73
2024/01/03 12:00:22;;;;;;;43.22;23.45;;;;;;;;;;4994760;28;20038;-73
2024/01/03 12:02:52;;;;;;;50.15;22.70;;;;;;;;;;4993487;28;20404;-73
2024/01/03 12:05:19;;;;;;;43.97;20.95;;;;;;;;;;4994330;28;20042;-72
2024/01/03 12:07:46;;;;;;;40.22;20.30;;;;;;;;;;4994509;28;20547;-72
2024/01/03 12:10:12;;;;;;;35.10;20.88;;;;;;;;;;4994923;28;20049;-72
2024/01/03 12:12:38;;;;;;;36.38;20.10;;;;;;;;;;4994839;28;20027;-73
2024/01/03 12:15:04;;;;;;;53.08;23.17;;;;;;;;;;4994347;28;20026;-73
2024/01/03 12:17:31;;;;;;;44.25;22.65;;;;;;;;;;4994782;28;20038;-73
2024/01/03 12:20:11;;;;;;;51.67;26.27;;;;;;;;;;4994134;28;20089;-72
2024/01/03 12:22:37;;;;;;;36.25;21.75;;;;;;;;;;4994534;28;20038;-73
2024/01/03 12:25:03;;;;;;;42.22;22.92;;;;;;;;;;5008585;28;20387;-73
2024/01/03 12:27:31;;;;;;;43.45;21.20;;;;;;;;;;5013994;28;20133;-73
2024/01/03 12:30:18;;;;;;;49.40;23.30;;;;;;;;;;5013942;28;20034;-72
2024/01/03 12:32:47;;;;;;;33.65;19.75;;;;;;;;;;5013701;28;20032;-72
2024/01/03 12:35:13;;;;;;;41.13;21.05;;;;;;;;;;4998937;28;20030;-73
2024/01/03 12:37:46;;;;;;;41.88;23.80;;;;;;;;;;4994253;28;20196;-73
2024/01/03 12:40:14;;;;;;;45.72;25.40;;;;;;;;;;4994526;28;20262;-73
2024/01/03 12:42:40;;;;;;;39.85;22.38;;;;;;;;;;4993790;28;20033;-73
2024/01/03 12:45:06;;;;;;;41.92;22.02;;;;;;;;;;4992788;28;20035;-73
2024/01/03 12:47:32;;;;;;;35.47;21.17;;;;;;;;;;4993593;28;20042;-71
2024/01/03 12:49:58;;;;;;;37.47;21.80;;;;;;;;;;4998938;28;20026;-73
2024/01/03 12:52:28;;;;;;;40.72;20.92;;;;;;;;;;5005168;28;20043;-73
2024/01/03 12:54:54;;;;;;;34.95;20.05;;;;;;;;;;5005896;28;20029;-72
2024/01/03 12:57:19;;;;;;;35.33;21.23;;;;;;;;;;5013741;28;20391;-72
2024/01/03 12:59:45;;;;;;;39.55;22.33;;;;;;;;;;4994705;28;20115;-73
2024/01/03 13:02:11;;;;;;;56.30;26.75;;;;;;;;;;4999084;28;20034;-72
2024/01/03 13:04:38;;;;;;;63.75;32.17;;;;;;;;;;5008887;28;20423;-72
2024/01/03 13:07:04;;;;;;;60.17;35.03;;;;;;;;;;4999694;28;20035;-72
2024/01/03 13:09:30;;;;;;;73.50;35.00;;;;;;;;;;5000153;28;20041;-72
2024/01/03 13:11:57;;;;;;;66.93;32.45;;;;;;;;;;4993866;28;20029;-73
2024/01/03 13:14:24;;;;;;;62.05;31.65;;;;;;;;;;5001997;28;20049;-74
2024/01/03 13:16:50;;;;;;;69.95;32.45;;;;;;;;;;5001683;28;20030;-72
2024/01/03 13:19:15;;;;;;;56.92;31.48;;;;;;;;;;5002064;28;20101;-71
2024/01/03 13:21:46;;;;;;;46.30;29.13;;;;;;;;;;5002517;28;20093;-73
2024/01/03 13:24:11;;;;;;;56.42;31.27;;;;;;;;;;4992652;28;20594;-72
2024/01/03 13:26:37;;;;;;;56.38;32.13;;;;;;;;;;5001306;28;20109;-73
2024/01/03 13:29:03;;;;;;;62.03;31.85;;;;;;;;;;4992852;28;20108;-72
2024/01/03 13:31:29;;;;;;;52.53;28.52;;;;;;;;;;4992689;28;20477;-71
2024/01/03 13:33:54;;;;;;;51.63;27.80;;;;;;;;;;4993413;28;20448;-73
2024/01/03 13:36:21;;;;;;;59.80;31.50;;;;;;;;;;4975935;28;20361;-71
2024/01/03 13:38:47;;;;;;;67.88;32.67;;;;;;;;;;4994943;28;20031;-71
2024/01/03 13:41:12;;;;;;;54.60;31.92;;;;;;;;;;5012251;28;20455;-71
2024/01/03 13:43:38;;;;;;;48.03;25.60;;;;;;;;;;5010348;28;20029;-70
2024/01/03 13:46:04;;;;;;;44.38;26.13;;;;;;;;;;4996226;28;20105;-71
2024/01/03 13:48:30;;;;;;;49.03;25.23;;;;;;;;;;5003284;28;20342;-71
2024/01/03 13:50:56;;;;;;;37.90;22.13;;;;;;;;;;4991710;28;20038;-71
2024/01/03 13:53:22;;;;;;;37.47;22.40;;;;;;;;;;4992023;28;20042;-72
2024/01/03 13:55:48;;;;;;;40.53;21.27;;;;;;;;;;4992482;28;20029;-71
2024/01/03 13:58:14;;;;;;;34.72;20.95;;;;;;;;;;4992188;28;20042;-71
2024/01/03 14:00:40;;;;;;;37.80;22.02;;;;;;;;;;4991849;28;20373;-71
2024/01/03 14:03:06;;;;;;;38.72;21.80;;;;;;;;;;4993017;28;20030;-72
2024/01/03 14:05:32;;;;;;;45.38;25.50;;;;;;;;;;4991722;28;20508;-71
2024/01/03 14:07:58;;;;;;;51.13;25.40;;;;;;;;;;4991911;28;20420;-70
2024/01/03 14:10:25;;;;;;;46.75;26.15;;;;;;;;;;4990726;28;20480;-72
2024/01/03 14:12:51;;;;;;;51.15;23.45;;;;;;;;;;4987139;28;20045;-72
2024/01/03 14:15:16;;;;;;;51.60;24.63;;;;;;;;;;4991840;28;20038;-72
2024/01/03 14:17:42;;;;;;;48.35;25.85;;;;;;;;;;4992689;28;20034;-72
2024/01/03 14:20:12;;;;;;;51.88;24.48;;;;;;;;;;4990131;28;20022;-73